Time;durP1;ratioP1;P1;durP2;ratioP2;P2;SDS_P1;SDS_P2;PMS_P1;PMS_P2;Temp;Humidity;BMP_temperature;BMP_pressure;BME280_temperature;BME280_humidity;BME280_pressure;Samples;Min_cycle;Max_cycle;Signal;HPM_P1;HPM_P2
2020/12/04 00:02:04;;;;;;;17.23;11.63;;;5.30;69.50;;;;;;5055891;28;20036;-65
2020/12/04 00:04:30;;;;;;;18.10;11.37;;;5.30;69.50;;;;;;5055815;28;20118;-65
2020/12/04 00:06:56;;;;;;;18.37;11.37;;;5.30;69.40;;;;;;5055794;28;20061;-66
2020/12/04 00:09:21;;;;;;;17.77;11.50;;;5.30;69.50;;;;;;5055940;28;20104;-65
2020/12/04 00:11:47;;;;;;;17.40;11.40;;;5.30;69.50;;;;;;5056047;28;20100;-65
2020/12/04 00:14:13;;;;;;;16.60;11.23;;;5.30;69.40;;;;;;5056076;28;20036;-65
2020/12/04 00:16:38;;;;;;;16.63;10.43;;;5.30;69.30;;;;;;5055727;28;20029;-65
2020/12/04 00:19:04;;;;;;;18.20;11.77;;;5.30;69.30;;;;;;5055802;28;20076;-65
2020/12/04 00:21:30;;;;;;;17.27;11.80;;;5.30;69.30;;;;;;5055550;28;20041;-65
2020/12/04 00:23:55;;;;;;;16.33;11.00;;;5.20;69.20;;;;;;5055604;28;20029;-66
2020/12/04 00:26:21;;;;;;;20.00;13.27;;;5.30;69.40;;;;;;5055681;28;20033;-65
2020/12/04 00:28:47;;;;;;;18.40;12.13;;;5.30;69.50;;;;;;5055501;28;20053;-65
2020/12/04 00:31:13;;;;;;;17.97;12.43;;;5.30;69.90;;;;;;5055348;28;20029;-70
2020/12/04 00:33:39;;;;;;;20.20;13.23;;;5.30;70.00;;;;;;5055222;28;20039;-65
2020/12/04 00:36:05;;;;;;;20.43;13.23;;;5.30;70.10;;;;;;5055123;28;20078;-65
2020/12/04 00:38:30;;;;;;;20.63;13.63;;;5.30;70.20;;;;;;5055310;28;20037;-66
2020/12/04 00:40:56;;;;;;;21.70;14.07;;;5.30;70.20;;;;;;5055278;28;20037;-65
2020/12/04 00:43:22;;;;;;;22.17;13.93;;;5.30;70.30;;;;;;5055549;28;20032;-66
2020/12/04 00:45:47;;;;;;;21.03;14.43;;;5.30;70.50;;;;;;5054978;28;20466;-65
2020/12/04 00:48:13;;;;;;;20.70;14.53;;;5.30;70.50;;;;;;5055237;28;20029;-65
2020/12/04 00:50:39;;;;;;;24.10;15.03;;;5.20;70.50;;;;;;5055307;28;20021;-65
2020/12/04 00:53:07;;;;;;;20.53;13.43;;;5.20;70.60;;;;;;5055038;28;20029;-65
2020/12/04 00:55:34;;;;;;;19.97;14.07;;;5.30;70.50;;;;;;5055217;28;20434;-65
2020/12/04 00:58:00;;;;;;;19.63;13.57;;;5.20;70.40;;;;;;5054920;28;20536;-65
2020/12/04 01:00:26;;;;;;;17.93;12.57;;;5.20;70.70;;;;;;5055072;28;20393;-65
2020/12/04 01:02:51;;;;;;;18.27;12.30;;;5.20;70.50;;;;;;5054941;28;20017;-65
2020/12/04 01:05:17;;;;;;;17.53;12.87;;;5.20;70.30;;;;;;5054725;28;20021;-65
2020/12/04 01:07:43;;;;;;;20.47;13.30;;;5.20;70.10;;;;;;5054973;28;20112;-65
2020/12/04 01:10:09;;;;;;;20.67;13.60;;;5.20;70.20;;;;;;5054831;28;20515;-65
2020/12/04 01:12:34;;;;;;;21.83;14.00;;;5.30;70.30;;;;;;5054758;28;20028;-65
2020/12/04 01:15:00;;;;;;;21.57;14.03;;;5.20;70.20;;;;;;5054424;28;20074;-65
2020/12/04 01:17:27;;;;;;;19.50;13.47;;;5.20;70.50;;;;;;5054264;28;20075;-65
2020/12/04 01:19:53;;;;;;;20.67;13.77;;;5.30;70.60;;;;;;5054788;28;20040;-65
2020/12/04 01:22:19;;;;;;;19.07;13.60;;;5.20;70.60;;;;;;5054506;28;20370;-65
2020/12/04 01:24:45;;;;;;;21.43;13.10;;;5.20;70.60;;;;;;5054171;28;20385;-65
2020/12/04 01:27:11;;;;;;;19.63;13.67;;;5.20;70.60;;;;;;5054656;28;20025;-65
2020/12/04 01:29:37;;;;;;;20.27;13.10;;;5.20;70.60;;;;;;5054423;28;20045;-65
2020/12/04 01:32:02;;;;;;;19.27;13.33;;;5.20;70.40;;;;;;5054290;28;20017;-64
2020/12/04 01:34:28;;;;;;;19.13;12.60;;;5.30;70.20;;;;;;5054010;28;20100;-65
2020/12/04 01:36:54;;;;;;;20.83;13.20;;;5.20;70.10;;;;;;5054285;28;20021;-64
2020/12/04 01:39:19;;;;;;;18.87;13.03;;;5.20;70.10;;;;;;5054130;28;20025;-65
2020/12/04 01:41:45;;;;;;;20.93;13.47;;;5.20;70.10;;;;;;5054117;28;20041;-66
2020/12/04 01:44:11;;;;;;;19.03;12.50;;;5.20;70.50;;;;;;5053559;28;20108;-65
2020/12/04 01:46:37;;;;;;;20.17;12.70;;;5.20;69.70;;;;;;5054169;28;20432;-65
2020/12/04 01:49:03;;;;;;;20.40;13.17;;;5.20;69.80;;;;;;5054048;28;20351;-65
2020/12/04 01:51:30;;;;;;;18.83;12.43;;;5.20;69.70;;;;;;5053871;28;20430;-65
2020/12/04 01:53:57;;;;;;;20.80;13.43;;;5.20;69.30;;;;;;5053864;28;20021;-65
2020/12/04 01:56:23;;;;;;;23.53;13.10;;;5.20;69.30;;;;;;5054005;28;20097;-65
2020/12/04 01:58:48;;;;;;;19.63;12.80;;;5.20;69.20;;;;;;5051694;28;20104;-65
2020/12/04 02:01:17;;;;;;;21.13;13.70;;;5.10;69.20;;;;;;5050665;28;20044;-65
2020/12/04 02:03:43;;;;;;;19.33;13.03;;;5.20;69.30;;;;;;5050924;28;20040;-65
2020/12/04 02:06:19;;;;;;;22.73;13.70;;;5.10;69.20;;;;;;5053520;28;20044;-65
2020/12/04 02:09:04;;;;;;;21.63;13.57;;;5.10;69.20;;;;;;5053652;28;20024;-65
2020/12/04 02:11:32;;;;;;;20.20;13.30;;;5.10;69.30;;;;;;5053753;28;20028;-65
2020/12/04 02:13:58;;;;;;;21.63;13.27;;;5.10;69.70;;;;;;5053029;28;20029;-65
2020/12/04 02:16:24;;;;;;;20.23;13.33;;;5.10;69.80;;;;;;5053343;28;20056;-65
2020/12/04 02:18:51;;;;;;;19.73;13.20;;;5.10;70.00;;;;;;5053361;28;20045;-65
2020/12/04 02:21:17;;;;;;;19.23;12.20;;;5.10;70.60;;;;;;5053361;28;20024;-65
2020/12/04 02:23:50;;;;;;;20.97;13.33;;;5.00;70.40;;;;;;5053540;28;20136;-66
2020/12/04 02:26:22;;;;;;;19.50;13.03;;;5.10;70.60;;;;;;5053300;28;20513;-65
2020/12/04 02:28:48;;;;;;;23.13;13.90;;;5.10;70.80;;;;;;5052921;28;20033;-65
2020/12/04 02:31:15;;;;;;;16.97;12.23;;;5.10;70.70;;;;;;5053224;28;20031;-65
2020/12/04 02:33:42;;;;;;;22.70;13.63;;;5.10;70.40;;;;;;5053254;28;20033;-65
2020/12/04 02:36:09;;;;;;;21.47;14.33;;;5.10;70.20;;;;;;5052885;28;20076;-65
2020/12/04 02:38:35;;;;;;;21.93;13.77;;;5.00;70.70;;;;;;5053241;28;20028;-65
2020/12/04 02:41:01;;;;;;;20.57;12.17;;;5.00;70.70;;;;;;5053131;28;20577;-65
2020/12/04 02:43:27;;;;;;;20.43;13.83;;;4.90;70.70;;;;;;5052727;28;20021;-65
2020/12/04 02:45:53;;;;;;;19.83;13.43;;;4.90;70.80;;;;;;5052942;28;20082;-65
2020/12/04 02:48:19;;;;;;;23.30;14.47;;;4.80;71.00;;;;;;5052891;28;20025;-65
2020/12/04 02:50:45;;;;;;;21.40;13.00;;;4.80;71.60;;;;;;5052778;28;20048;-65
2020/12/04 02:53:10;;;;;;;20.70;12.83;;;4.80;71.60;;;;;;5052913;28;20495;-65
2020/12/04 02:55:36;;;;;;;23.27;13.57;;;4.80;71.60;;;;;;5052414;28;20024;-65
2020/12/04 02:58:02;;;;;;;20.57;13.43;;;4.80;71.70;;;;;;5052926;28;20104;-65
2020/12/04 03:00:28;;;;;;;20.93;13.83;;;4.70;71.70;;;;;;5052983;28;20497;-66
2020/12/04 03:02:54;;;;;;;21.07;13.87;;;4.70;72.10;;;;;;5053046;28;20108;-65
2020/12/04 03:05:19;;;;;;;21.40;14.23;;;4.70;72.50;;;;;;5052862;28;20032;-65
2020/12/04 03:07:45;;;;;;;20.40;14.00;;;4.70;72.60;;;;;;5052902;28;20032;-65
2020/12/04 03:10:11;;;;;;;22.33;13.87;;;4.60;72.60;;;;;;5052837;28;20060;-65
2020/12/04 03:12:38;;;;;;;21.27;14.67;;;4.60;72.90;;;;;;5053216;28;20029;-65
2020/12/04 03:15:04;;;;;;;18.70;13.40;;;4.70;72.90;;;;;;5052727;28;20029;-65
2020/12/04 03:17:30;;;;;;;21.07;13.33;;;4.60;73.20;;;;;;5052993;28;20055;-65
2020/12/04 03:19:57;;;;;;;22.83;13.57;;;4.60;73.10;;;;;;5052803;28;20385;-65
2020/12/04 03:22:23;;;;;;;20.83;13.50;;;4.60;73.10;;;;;;5052600;28;20033;-65
2020/12/04 03:24:49;;;;;;;20.60;13.63;;;4.70;73.20;;;;;;5052449;28;20466;-65
2020/12/04 03:27:14;;;;;;;22.10;14.73;;;4.70;73.60;;;;;;5052654;28;20079;-65
2020/12/04 03:29:40;;;;;;;24.13;14.23;;;4.70;73.70;;;;;;5052722;28;20131;-65
2020/12/04 03:32:06;;;;;;;22.80;13.77;;;4.70;73.70;;;;;;5052569;28;20025;-65
2020/12/04 03:34:33;;;;;;;20.93;13.77;;;4.70;73.70;;;;;;5052355;28;20032;-65
2020/12/04 03:36:58;;;;;;;22.83;14.00;;;4.70;73.70;;;;;;5052705;28;20025;-65
2020/12/04 03:39:24;;;;;;;21.43;14.10;;;4.70;73.70;;;;;;5052659;28;20025;-65
2020/12/04 03:41:50;;;;;;;21.77;13.83;;;4.70;74.00;;;;;;5052835;28;20060;-65
2020/12/04 03:44:16;;;;;;;23.30;14.43;;;4.70;73.90;;;;;;5052471;28;20017;-65
2020/12/04 03:46:43;;;;;;;23.07;14.50;;;4.70;74.60;;;;;;5052385;28;20028;-65
2020/12/04 03:49:13;;;;;;;19.93;13.50;;;4.70;74.00;;;;;;5052406;28;20025;-65
2020/12/04 03:51:45;;;;;;;21.03;14.07;;;4.80;73.80;;;;;;5052187;28;20486;-65
2020/12/04 03:54:11;;;;;;;22.07;13.83;;;4.80;73.60;;;;;;5052254;28;20021;-65
2020/12/04 03:56:37;;;;;;;22.80;14.17;;;4.80;73.90;;;;;;5052518;28;20025;-64
2020/12/04 03:59:03;;;;;;;23.13;14.70;;;4.80;74.20;;;;;;5052336;28;20032;-65
2020/12/04 04:01:30;;;;;;;26.10;15.23;;;4.80;74.20;;;;;;5052321;28;20031;-69
2020/12/04 04:03:56;;;;;;;21.70;13.50;;;4.80;74.20;;;;;;5052046;28;20021;-65
2020/12/04 04:06:22;;;;;;;20.37;14.03;;;4.80;74.20;;;;;;5052399;28;20028;-65
2020/12/04 04:08:47;;;;;;;23.10;14.67;;;4.80;74.10;;;;;;5055945;28;20021;-65
2020/12/04 04:11:13;;;;;;;19.90;13.27;;;4.80;74.20;;;;;;5055960;28;20033;-65
2020/12/04 04:13:39;;;;;;;21.63;14.40;;;4.80;74.20;;;;;;5056026;28;20021;-65
2020/12/04 04:16:07;;;;;;;23.57;14.07;;;4.80;74.30;;;;;;5055695;28;20064;-65
2020/12/04 04:18:34;;;;;;;21.90;14.20;;;4.90;74.60;;;;;;5055489;28;20095;-65
2020/12/04 04:21:01;;;;;;;21.70;13.20;;;4.90;74.80;;;;;;5055531;28;20025;-66
2020/12/04 04:23:27;;;;;;;21.03;13.33;;;4.90;75.00;;;;;;5055156;28;20044;-65
2020/12/04 04:25:53;;;;;;;20.70;13.20;;;4.90;75.00;;;;;;5055480;28;20146;-65
2020/12/04 04:28:19;;;;;;;22.67;13.47;;;4.90;75.00;;;;;;5055355;28;20082;-65
2020/12/04 04:30:44;;;;;;;23.73;14.03;;;4.90;75.20;;;;;;5055713;28;20032;-65
2020/12/04 04:33:10;;;;;;;18.20;12.03;;;4.90;75.00;;;;;;5055552;28;20033;-65
2020/12/04 04:35:36;;;;;;;20.77;12.40;;;4.90;74.90;;;;;;5055198;28;20033;-65
2020/12/04 04:38:03;;;;;;;19.47;12.40;;;4.90;74.60;;;;;;5055418;28;20029;-65
2020/12/04 04:40:30;;;;;;;20.83;12.60;;;4.90;74.50;;;;;;5055357;28;20029;-65
2020/12/04 04:43:12;;;;;;;20.60;12.57;;;4.90;74.20;;;;;;5055303;28;20108;-65
2020/12/04 04:45:42;;;;;;;20.42;12.85;;;4.90;74.00;;;;;;5055154;28;20021;-65
2020/12/04 04:48:18;;;;;;;22.47;13.00;;;4.90;73.90;;;;;;5055104;28;20021;-65
2020/12/04 04:50:44;;;;;;;19.03;13.40;;;4.90;73.70;;;;;;5055255;28;20091;-66
2020/12/04 04:53:11;;;;;;;19.17;12.87;;;4.90;73.70;;;;;;5055351;28;20103;-65
2020/12/04 04:55:41;;;;;;;19.40;13.30;;;5.00;73.70;;;;;;5055003;28;20033;-65
2020/12/04 04:58:07;;;;;;;19.53;13.00;;;4.90;73.40;;;;;;5055449;28;20096;-65
2020/12/04 05:00:33;;;;;;;18.73;12.57;;;4.90;73.40;;;;;;5054758;28;20108;-65
2020/12/04 05:02:59;;;;;;;20.03;13.10;;;5.00;73.60;;;;;;5054769;28;20056;-65
2020/12/04 05:05:42;;;;;;;19.77;13.13;;;5.00;73.50;;;;;;5055012;28;20390;-65
2020/12/04 05:08:15;;;;;;;20.55;13.23;;;5.00;73.60;;;;;;5054801;28;20045;-66
2020/12/04 05:10:42;;;;;;;22.37;13.47;;;5.00;73.40;;;;;;5055136;28;20032;-65
2020/12/04 05:13:08;;;;;;;19.97;13.17;;;5.00;73.40;;;;;;5054808;28;20025;-65
2020/12/04 05:15:35;;;;;;;20.50;13.80;;;5.00;73.40;;;;;;5054634;28;20031;-65
2020/12/04 05:18:10;;;;;;;21.80;13.20;;;5.00;73.30;;;;;;5054055;28;20053;-65
2020/12/04 05:20:41;;;;;;;20.07;13.50;;;5.00;73.20;;;;;;5054409;28;20440;-66
2020/12/04 05:23:08;;;;;;;26.73;14.70;;;5.00;73.00;;;;;;5053969;28;20032;-65
2020/12/04 05:25:38;;;;;;;20.33;12.47;;;5.00;73.00;;;;;;5054572;28;20028;-65
2020/12/04 05:28:14;;;;;;;21.00;13.47;;;5.00;73.10;;;;;;5054380;28;20041;-65
2020/12/04 05:30:41;;;;;;;18.23;13.43;;;5.00;73.00;;;;;;5054371;28;20478;-65
2020/12/04 05:33:08;;;;;;;21.97;13.90;;;5.00;73.10;;;;;;5054319;28;20029;-65
2020/12/04 05:35:34;;;;;;;19.17;13.87;;;5.00;73.00;;;;;;5054006;28;20105;-65
2020/12/04 05:38:07;;;;;;;20.67;14.00;;;5.00;73.10;;;;;;5053985;28;20017;-65
2020/12/04 05:40:35;;;;;;;24.03;14.93;;;5.00;73.00;;;;;;5052930;28;20021;-65
2020/12/04 05:43:02;;;;;;;21.53;14.37;;;5.00;72.90;;;;;;5053964;28;20040;-65
2020/12/04 05:45:28;;;;;;;20.73;13.87;;;5.10;73.00;;;;;;5053820;28;20021;-65
2020/12/04 05:47:54;;;;;;;23.13;14.47;;;5.00;73.00;;;;;;5053708;28;20032;-65
2020/12/04 05:50:20;;;;;;;23.57;14.97;;;5.10;73.00;;;;;;5054211;28;20021;-65
2020/12/04 05:52:48;;;;;;;21.47;14.17;;;5.00;72.90;;;;;;5054117;28;20523;-65
2020/12/04 05:55:15;;;;;;;25.43;13.97;;;5.10;73.00;;;;;;5053827;28;20022;-65
2020/12/04 05:57:50;;;;;;;21.43;14.13;;;5.10;73.10;;;;;;5053862;28;20033;-65
2020/12/04 06:00:16;;;;;;;22.47;13.50;;;5.10;73.20;;;;;;5054087;28;20021;-65
2020/12/04 06:02:42;;;;;;;19.57;13.47;;;5.10;73.50;;;;;;5053551;28;20041;-65
2020/12/04 06:05:10;;;;;;;23.37;14.07;;;5.10;73.40;;;;;;5053690;28;20110;-65
2020/12/04 06:07:36;;;;;;;22.33;14.03;;;5.10;73.60;;;;;;5054000;28;20079;-65
2020/12/04 06:10:03;;;;;;;21.30;14.10;;;5.10;73.40;;;;;;5053799;28;20021;-65
2020/12/04 06:12:29;;;;;;;20.77;14.53;;;5.10;73.30;;;;;;5053683;28;20025;-64
2020/12/04 06:15:27;;;;;;;24.10;15.23;;;5.10;73.30;;;;;;5053433;28;20013;-65
2020/12/04 06:18:07;;;;;;;23.30;14.57;;;5.10;73.40;;;;;;5053089;28;20052;-65
2020/12/04 06:20:51;;;;;;;20.50;14.07;;;5.10;73.30;;;;;;5053383;28;20167;-65
2020/12/04 06:23:18;;;;;;;22.97;14.83;;;5.10;73.70;;;;;;5053465;28;20401;-65
2020/12/04 06:25:54;;;;;;;21.23;14.10;;;5.10;73.50;;;;;;5053222;28;20159;-65
2020/12/04 06:28:22;;;;;;;26.93;15.37;;;5.10;73.20;;;;;;5053395;28;20036;-65
2020/12/04 06:31:09;;;;;;;24.67;16.27;;;5.10;73.40;;;;;;5053374;28;20033;-65
2020/12/04 06:33:44;;;;;;;21.43;14.83;;;5.10;73.30;;;;;;5053138;28;20029;-65
2020/12/04 06:36:31;;;;;;;23.17;15.10;;;5.10;73.10;;;;;;5053323;28;20462;-65
2020/12/04 06:38:58;;;;;;;25.00;15.43;;;5.10;73.80;;;;;;5052897;28;20033;-65
2020/12/04 06:41:26;;;;;;;22.23;14.40;;;5.10;73.20;;;;;;5052898;28;20101;-65
2020/12/04 06:43:57;;;;;;;22.70;14.27;;;5.10;73.20;;;;;;5052952;28;20064;-65
2020/12/04 06:46:42;;;;;;;29.87;14.17;;;5.20;73.20;;;;;;5053047;28;20067;-65
2020/12/04 06:52:16;;;;;;;25.73;15.50;;;5.10;73.20;;;;;;5053164;28;20033;-65
2020/12/04 06:54:46;;;;;;;27.52;14.88;;;5.10;73.10;;;;;;5052902;28;20033;-65
2020/12/04 06:57:14;;;;;;;24.37;15.70;;;5.10;73.10;;;;;;5052991;28;20036;-65
2020/12/04 06:59:41;;;;;;;23.70;15.03;;;5.10;73.10;;;;;;5053175;28;20385;-65
2020/12/04 07:02:08;;;;;;;24.93;14.87;;;5.20;73.20;;;;;;5053125;28;20135;-65
2020/12/04 07:04:36;;;;;;;23.67;14.70;;;5.20;73.20;;;;;;5052869;28;20078;-65
2020/12/04 07:07:06;;;;;;;30.30;15.00;;;5.20;73.10;;;;;;5053082;28;20029;-65
2020/12/04 07:09:32;;;;;;;27.80;15.77;;;5.20;73.10;;;;;;5053000;28;20386;-65
2020/12/04 07:12:00;;;;;;;25.20;15.40;;;5.20;73.50;;;;;;5052919;28;20025;-65
2020/12/04 07:14:26;;;;;;;22.80;14.40;;;5.20;73.60;;;;;;5052792;28;20021;-65
2020/12/04 07:16:53;;;;;;;22.13;14.97;;;5.20;73.60;;;;;;5052563;28;20021;-64
2020/12/04 07:19:19;;;;;;;28.57;16.77;;;5.20;73.30;;;;;;5052833;28;20028;-65
2020/12/04 07:21:45;;;;;;;24.33;14.20;;;5.20;73.50;;;;;;5052592;28;20044;-65
2020/12/04 07:24:11;;;;;;;26.17;14.90;;;5.20;73.40;;;;;;5052582;28;20108;-65
2020/12/04 07:26:38;;;;;;;23.47;15.13;;;5.30;73.30;;;;;;5043525;28;20032;-65
2020/12/04 07:29:05;;;;;;;28.20;15.97;;;5.20;73.40;;;;;;5047164;28;20063;-65
2020/12/04 07:31:31;;;;;;;24.70;16.73;;;5.30;73.40;;;;;;5052364;28;20087;-65
2020/12/04 07:34:00;;;;;;;25.03;16.77;;;5.30;73.40;;;;;;5052591;28;20028;-65
2020/12/04 07:36:27;;;;;;;25.47;15.87;;;5.30;73.90;;;;;;5052419;28;20029;-65
2020/12/04 07:38:59;;;;;;;27.33;16.00;;;5.30;73.70;;;;;;5052408;28;20025;-65
2020/12/04 07:41:36;;;;;;;24.40;16.33;;;5.30;73.60;;;;;;5052721;28;20363;-66
2020/12/04 07:44:07;;;;;;;26.60;16.63;;;5.30;73.70;;;;;;5056690;28;20025;-65
2020/12/04 07:46:35;;;;;;;22.73;15.57;;;5.30;73.50;;;;;;5056304;28;20386;-65
2020/12/04 07:49:12;;;;;;;24.23;16.43;;;5.30;73.70;;;;;;5056220;28;20040;-65
2020/12/04 07:51:40;;;;;;;25.13;16.33;;;5.30;73.40;;;;;;5056223;28;20044;-65
2020/12/04 07:54:22;;;;;;;25.20;16.13;;;5.30;73.40;;;;;;5053294;28;20029;-65
2020/12/04 07:56:53;;;;;;;32.67;18.58;;;5.30;73.50;;;;;;5053241;28;20037;-65
2020/12/04 07:59:28;;;;;;;30.47;17.00;;;5.30;73.80;;;;;;5054746;28;20022;-67
2020/12/04 08:01:55;;;;;;;28.00;16.60;;;5.40;73.50;;;;;;5055636;28;20069;-68
2020/12/04 08:04:21;;;;;;;29.67;18.37;;;5.30;73.40;;;;;;5055836;28;20028;-65
2020/12/04 08:06:47;;;;;;;26.23;16.37;;;5.30;73.40;;;;;;5055632;28;20021;-67
2020/12/04 08:09:19;;;;;;;25.90;16.30;;;5.40;73.50;;;;;;5055785;28;20059;-67
2020/12/04 08:11:47;;;;;;;26.37;16.23;;;5.40;73.60;;;;;;5056021;28;20044;-67
2020/12/04 08:14:15;;;;;;;24.50;17.23;;;5.40;73.40;;;;;;5055686;28;20033;-65
2020/12/04 08:16:42;;;;;;;29.07;16.30;;;5.40;73.60;;;;;;5054503;28;20028;-67
2020/12/04 08:19:12;;;;;;;30.43;17.23;;;5.50;73.80;;;;;;5052621;28;20163;-67
2020/12/04 08:22:04;;;;;;;26.40;16.93;;;5.50;73.70;;;;;;5053252;28;20036;-67
2020/12/04 08:24:39;;;;;;;24.70;16.53;;;5.50;73.30;;;;;;5055651;28;20474;-66
2020/12/04 08:27:06;;;;;;;25.57;16.47;;;5.50;73.40;;;;;;5055320;28;20473;-66
2020/12/04 08:29:33;;;;;;;26.83;15.70;;;5.50;73.40;;;;;;5055471;28;20079;-66
2020/12/04 08:32:12;;;;;;;23.03;15.83;;;5.50;73.50;;;;;;5055634;28;20436;-66
2020/12/04 08:34:39;;;;;;;24.47;15.27;;;5.60;73.80;;;;;;5055482;28;20025;-67
2020/12/04 08:37:08;;;;;;;24.10;15.73;;;5.60;73.70;;;;;;5053930;28;20024;-67
2020/12/04 08:39:41;;;;;;;22.77;14.50;;;5.60;73.80;;;;;;5054481;28;20025;-69
2020/12/04 08:42:20;;;;;;;25.20;15.87;;;5.70;73.90;;;;;;5054543;28;20102;-67
2020/12/04 08:45:02;;;;;;;22.47;14.40;;;5.70;73.80;;;;;;5054019;28;20017;-67
2020/12/04 08:47:35;;;;;;;23.75;15.38;;;5.70;73.70;;;;;;5049951;28;20025;-68
2020/12/04 08:50:11;;;;;;;23.60;16.27;;;5.80;73.60;;;;;;5050242;28;20017;-67
2020/12/04 08:52:39;;;;;;;23.57;15.40;;;5.80;73.70;;;;;;5049482;28;20152;-68
2020/12/04 08:55:17;;;;;;;27.93;15.80;;;5.80;73.50;;;;;;5047144;28;20048;-67
2020/12/04 08:57:44;;;;;;;23.47;15.50;;;5.80;73.60;;;;;;5047901;28;20489;-67
2020/12/04 09:00:14;;;;;;;25.13;16.17;;;5.90;73.80;;;;;;5054908;28;20029;-67
2020/12/04 09:02:40;;;;;;;23.10;15.03;;;5.90;73.70;;;;;;5054932;28;20047;-67
2020/12/04 09:05:09;;;;;;;24.87;15.40;;;5.90;73.60;;;;;;5046751;28;20447;-67
2020/12/04 09:07:35;;;;;;;22.03;14.53;;;5.90;73.50;;;;;;5035052;28;20029;-67
2020/12/04 09:10:01;;;;;;;23.67;15.53;;;5.90;73.40;;;;;;5034980;28;20081;-67
2020/12/04 09:12:27;;;;;;;24.60;15.90;;;5.90;73.40;;;;;;5035259;28;20098;-67
2020/12/04 09:14:53;;;;;;;23.93;14.80;;;5.90;73.60;;;;;;5033703;28;20553;-67
2020/12/04 09:17:19;;;;;;;27.40;17.20;;;5.90;73.50;;;;;;5035782;28;20144;-67
2020/12/04 09:19:45;;;;;;;26.83;16.47;;;5.90;73.40;;;;;;5051728;28;20032;-68
2020/12/04 09:22:15;;;;;;;23.03;15.60;;;5.90;73.40;;;;;;5041795;28;20389;-68
2020/12/04 09:24:43;;;;;;;25.77;16.60;;;5.90;73.40;;;;;;5043793;28;20533;-67
2020/12/04 09:27:08;;;;;;;26.13;16.00;;;5.90;73.40;;;;;;5037981;28;20358;-68
2020/12/04 09:29:35;;;;;;;25.63;16.10;;;6.00;73.50;;;;;;5038171;28;20029;-67
2020/12/04 09:32:15;;;;;;;21.97;15.80;;;6.00;73.70;;;;;;5049276;28;20121;-67
2020/12/04 09:34:44;;;;;;;26.83;15.70;;;6.00;73.70;;;;;;5052875;28;20029;-67
2020/12/04 09:37:15;;;;;;;28.37;15.77;;;6.00;73.60;;;;;;5054349;28;20036;-68
2020/12/04 09:39:45;;;;;;;24.27;15.57;;;6.10;73.70;;;;;;5054093;28;20091;-68
2020/12/04 09:42:15;;;;;;;24.33;14.47;;;6.20;74.20;;;;;;5054336;28;20055;-67
2020/12/04 09:44:43;;;;;;;26.73;16.77;;;6.20;73.50;;;;;;5054393;28;20047;-67
2020/12/04 09:47:09;;;;;;;23.53;15.67;;;6.20;73.50;;;;;;5054311;28;20092;-67
2020/12/04 09:49:35;;;;;;;25.97;17.27;;;6.20;73.50;;;;;;5054175;28;20082;-67
2020/12/04 09:52:03;;;;;;;27.97;16.53;;;6.30;73.50;;;;;;5053758;28;20017;-67
2020/12/04 09:54:30;;;;;;;27.30;16.47;;;6.30;73.40;;;;;;5054221;28;20029;-70
2020/12/04 09:56:57;;;;;;;23.63;15.43;;;6.30;73.80;;;;;;5054205;28;20101;-67
2020/12/04 09:59:26;;;;;;;24.80;15.30;;;6.30;73.40;;;;;;5054021;28;20035;-67
2020/12/04 10:01:53;;;;;;;24.73;15.77;;;6.40;73.40;;;;;;5053736;28;20033;-68
2020/12/04 10:04:20;;;;;;;24.40;16.33;;;6.40;73.20;;;;;;5053339;28;20029;-67
2020/12/04 10:06:46;;;;;;;29.60;17.07;;;6.40;73.20;;;;;;5053723;28;20048;-67
2020/12/04 10:09:13;;;;;;;25.60;16.83;;;6.40;73.10;;;;;;5053965;28;20420;-68
2020/12/04 10:11:39;;;;;;;24.63;16.60;;;6.40;72.90;;;;;;5054144;28;20025;-67
2020/12/04 10:14:05;;;;;;;22.47;16.13;;;6.40;72.80;;;;;;5053647;28;20530;-67
2020/12/04 10:16:31;;;;;;;25.67;15.83;;;6.40;72.80;;;;;;5053822;28;20110;-67
2020/12/04 10:18:57;;;;;;;22.67;16.77;;;6.40;72.70;;;;;;5053809;28;20048;-67
2020/12/04 10:21:24;;;;;;;25.50;16.40;;;6.40;72.90;;;;;;5053692;28;20103;-67
2020/12/04 10:23:51;;;;;;;23.67;16.40;;;6.40;72.70;;;;;;5053632;28;20033;-67
2020/12/04 10:26:17;;;;;;;21.50;14.97;;;6.40;72.80;;;;;;5053592;28;20090;-67
2020/12/04 10:28:42;;;;;;;24.40;15.23;;;6.40;72.60;;;;;;5053634;28;20071;-68
2020/12/04 10:31:08;;;;;;;26.43;15.90;;;6.40;72.60;;;;;;5053626;28;20524;-67
2020/12/04 10:33:34;;;;;;;23.13;15.87;;;6.40;72.50;;;;;;5053733;28;20028;-68
2020/12/04 10:36:02;;;;;;;24.50;15.80;;;6.40;72.50;;;;;;5053383;28;20029;-68
2020/12/04 10:38:29;;;;;;;22.57;15.30;;;6.40;72.70;;;;;;5053462;28;20389;-67
2020/12/04 10:40:55;;;;;;;25.23;15.67;;;6.50;72.80;;;;;;5053150;28;20485;-67
2020/12/04 10:43:21;;;;;;;23.40;15.73;;;6.40;72.80;;;;;;5053228;28;20029;-67
2020/12/04 10:45:47;;;;;;;25.33;15.40;;;6.50;72.80;;;;;;5053266;28;20039;-68
2020/12/04 10:48:12;;;;;;;21.07;15.37;;;6.50;72.60;;;;;;5053223;28;20495;-67
2020/12/04 10:50:38;;;;;;;23.03;15.43;;;6.60;72.60;;;;;;5053257;28;20100;-67
2020/12/04 10:53:04;;;;;;;24.53;15.67;;;6.60;72.50;;;;;;5053138;28;20029;-67
2020/12/04 10:55:30;;;;;;;23.47;16.13;;;6.60;72.30;;;;;;5053491;28;20057;-67
2020/12/04 10:57:55;;;;;;;25.40;15.20;;;6.70;72.20;;;;;;5053149;28;20033;-67
2020/12/04 11:00:21;;;;;;;23.70;16.23;;;6.70;72.10;;;;;;5053358;28;20025;-67
2020/12/04 11:02:48;;;;;;;23.97;15.73;;;6.80;72.40;;;;;;5053215;28;20112;-67
2020/12/04 11:05:33;;;;;;;24.40;15.27;;;6.80;72.10;;;;;;5052809;28;20021;-67
2020/12/04 11:07:59;;;;;;;21.67;15.30;;;6.90;71.90;;;;;;5053285;28;20382;-68
2020/12/04 11:10:25;;;;;;;23.13;15.20;;;6.90;71.90;;;;;;5053031;28;20017;-67
2020/12/04 11:12:50;;;;;;;22.50;15.63;;;7.00;71.50;;;;;;5053018;28;20071;-68
2020/12/04 11:15:16;;;;;;;25.77;16.40;;;7.00;71.50;;;;;;5052693;28;20033;-68
2020/12/04 11:17:42;;;;;;;28.00;17.60;;;7.00;72.00;;;;;;5054765;28;20092;-67
2020/12/04 11:20:08;;;;;;;24.53;16.60;;;7.00;71.30;;;;;;5056877;28;20021;-67
2020/12/04 11:22:35;;;;;;;25.37;16.23;;;7.00;72.00;;;;;;5056407;28;20025;-67
2020/12/04 11:25:03;;;;;;;28.73;17.97;;;6.90;71.40;;;;;;5056589;28;20393;-68
2020/12/04 11:27:29;;;;;;;27.37;17.70;;;6.90;71.50;;;;;;5056674;28;20017;-67
2020/12/04 11:29:54;;;;;;;31.17;17.37;;;6.90;71.50;;;;;;5056716;28;20070;-67
2020/12/04 11:32:20;;;;;;;30.60;17.80;;;6.90;71.60;;;;;;5056532;28;20509;-67
2020/12/04 11:34:46;;;;;;;23.40;16.73;;;6.90;71.60;;;;;;5056949;28;20021;-67
2020/12/04 11:37:12;;;;;;;27.27;16.17;;;6.80;71.60;;;;;;5056982;28;20099;-67
2020/12/04 11:39:40;;;;;;;30.27;18.30;;;6.80;71.60;;;;;;5056549;28;20474;-70
2020/12/04 11:42:15;;;;;;;32.43;15.97;;;6.80;71.50;;;;;;5056386;28;20478;-68
2020/12/04 11:44:40;;;;;;;25.10;16.63;;;6.80;71.60;;;;;;5056219;28;20548;-66
2020/12/04 11:47:06;;;;;;;23.13;15.57;;;6.70;71.50;;;;;;5056064;28;20029;-67
2020/12/04 11:49:32;;;;;;;26.73;16.40;;;6.70;71.50;;;;;;5056377;28;20453;-68
2020/12/04 11:51:57;;;;;;;29.00;16.27;;;6.70;71.70;;;;;;5056407;28;20071;-67
2020/12/04 11:54:23;;;;;;;26.03;16.57;;;6.70;71.70;;;;;;5056346;28;20025;-67
2020/12/04 11:56:50;;;;;;;27.80;16.73;;;6.70;71.70;;;;;;5056287;28;20053;-67
2020/12/04 11:59:20;;;;;;;30.13;17.60;;;6.80;71.70;;;;;;5056103;28;20039;-67
2020/12/04 12:01:46;;;;;;;28.97;17.47;;;6.80;71.70;;;;;;5056095;28;20485;-67
2020/12/04 12:04:14;;;;;;;28.17;16.30;;;6.80;71.80;;;;;;5056245;28;20374;-67
2020/12/04 12:06:41;;;;;;;26.43;17.33;;;6.80;71.70;;;;;;5055989;28;20025;-67
2020/12/04 12:09:08;;;;;;;23.33;16.17;;;6.80;71.80;;;;;;5055561;28;20082;-67
2020/12/04 12:11:34;;;;;;;22.07;15.63;;;6.80;71.80;;;;;;5056181;28;20028;-67
2020/12/04 12:14:00;;;;;;;26.80;16.43;;;6.80;71.70;;;;;;5055824;28;20029;-67
2020/12/04 12:16:25;;;;;;;24.97;16.43;;;6.80;71.70;;;;;;5055774;28;20028;-68
2020/12/04 12:18:51;;;;;;;27.23;16.50;;;6.80;71.70;;;;;;5052242;28;20065;-65
2020/12/04 12:21:17;;;;;;;26.57;16.40;;;6.70;71.70;;;;;;5053043;28;20385;-65
2020/12/04 12:23:43;;;;;;;22.47;15.97;;;6.70;71.70;;;;;;5055207;28;20025;-66
2020/12/04 12:26:11;;;;;;;24.83;16.70;;;6.80;71.80;;;;;;5055660;28;20036;-65
2020/12/04 12:28:37;;;;;;;24.57;15.90;;;6.70;71.90;;;;;;5055165;28;20477;-71
2020/12/04 12:31:03;;;;;;;22.47;15.67;;;6.70;72.10;;;;;;5055256;28;20469;-65
2020/12/04 12:33:28;;;;;;;24.63;16.07;;;6.70;72.40;;;;;;5055450;28;20029;-66
2020/12/04 12:35:54;;;;;;;21.70;15.30;;;6.70;72.40;;;;;;5055245;28;20071;-65
2020/12/04 12:38:20;;;;;;;23.77;14.57;;;6.70;72.40;;;;;;5054741;28;20529;-65
2020/12/04 12:40:46;;;;;;;23.73;15.70;;;6.70;72.30;;;;;;5055161;28;20035;-65
2020/12/04 12:43:11;;;;;;;23.60;15.53;;;6.70;72.40;;;;;;5052449;28;20480;-65